Athol, Kansas
Current Conditions -  °F | °C
As of 12:35 AM on Thursday 27 Nov 2014 (Local Time) from KHDE Reporting Station
Overcast Overcast  
Wind Chill: 24°   Ceiling: 9000
Heat Index: 24°   Visibility: 10mi
Dew Point: 17°   Wind: 3mph
Humidity: 73%   Direction: 90°E
Pressure: 30.4"   Gusts: NA
Location:  39.77°N, 98.92°W
Report Text: KHDE 270635Z AUTO 09003KT 10SM OVC090 M04/M08 A3040 RMK AO2 T10431084
Loading
Personal Weather Stations






























Interactive Weather Map New forecast layout! Learn more

10-Day Weather Forecast

Advertisements
Track Severe Weather on mobile